Port Lincoln Aerodrome, Australia
Current Conditions -  °F | °C
As of 8:00 AM on Sunday 26 Oct 2014 (Local Time) from YWHA Reporting Station
Overcast Overcast  
Wind Chill: 68°   Ceiling: 11000
Heat Index: 68°   Visibility: 6mi
Dew Point: 61°   Wind: 12mph
Humidity: 78%   Direction: 90°E
Pressure: 29.91"   Gusts: NA
Location:  34.6°S, 135.87°E
Report Text: YWHA 252200Z AUTO 09010KT 9999 // OVC110 20/16 Q1013
Loading
Personal Weather Stations






























Interactive Weather Map
Tropical Storm Tracking
New forecast layout! Learn more

10-Day Weather Forecast

Advertisements
Track Severe Weather on mobile